sensor_id;sensor_type;location;lat;lon;timestamp;P1;durP1;ratioP1;P2;durP2;ratioP2
37781;SDS011;23621;50.878;4.584;2024-02-28T00:00:30;15.27;;;13.23;;
37781;SDS011;23621;50.878;4.584;2024-02-28T00:30:19;11.30;;;9.80;;
37781;SDS011;23621;50.878;4.584;2024-02-28T00:32:20;11.88;;;10.68;;
37781;SDS011;23621;50.878;4.584;2024-02-28T00:34:21;13.15;;;10.73;;
37781;SDS011;23621;50.878;4.584;2024-02-28T00:36:22;13.15;;;9.68;;
37781;SDS011;23621;50.878;4.584;2024-02-28T00:38:22;11.38;;;10.27;;
37781;SDS011;23621;50.878;4.584;2024-02-28T00:40:23;11.93;;;10.55;;
37781;SDS011;23621;50.878;4.584;2024-02-28T00:42:25;11.23;;;10.23;;
37781;SDS011;23621;50.878;4.584;2024-02-28T00:44:27;11.48;;;10.38;;
37781;SDS011;23621;50.878;4.584;2024-02-28T00:46:27;10.98;;;9.98;;
37781;SDS011;23621;50.878;4.584;2024-02-28T00:48:28;11.07;;;9.77;;
37781;SDS011;23621;50.878;4.584;2024-02-28T00:50:29;10.18;;;9.20;;
37781;SDS011;23621;50.878;4.584;2024-02-28T00:52:29;11.27;;;10.18;;
37781;SDS011;23621;50.878;4.584;2024-02-28T00:54:32;10.30;;;9.30;;
37781;SDS011;23621;50.878;4.584;2024-02-28T00:56:32;11.25;;;10.05;;
37781;SDS011;23621;50.878;4.584;2024-02-28T00:58:33;11.68;;;10.50;;
37781;SDS011;23621;50.878;4.584;2024-02-28T01:00:34;11.00;;;9.88;;
37781;SDS011;23621;50.878;4.584;2024-02-28T01:02:35;11.63;;;9.88;;
37781;SDS011;23621;50.878;4.584;2024-02-28T01:04:35;11.15;;;9.55;;
37781;SDS011;23621;50.878;4.584;2024-02-28T01:06:36;10.95;;;9.05;;
37781;SDS011;23621;50.878;4.584;2024-02-28T01:08:38;10.63;;;9.52;;
37781;SDS011;23621;50.878;4.584;2024-02-28T01:10:39;10.88;;;9.75;;
37781;SDS011;23621;50.878;4.584;2024-02-28T01:12:41;12.50;;;9.88;;
37781;SDS011;23621;50.878;4.584;2024-02-28T01:14:41;13.77;;;10.85;;
37781;SDS011;23621;50.878;4.584;2024-02-28T01:16:42;12.73;;;10.57;;
37781;SDS011;23621;50.878;4.584;2024-02-28T01:18:42;11.43;;;9.65;;
37781;SDS011;23621;50.878;4.584;2024-02-28T01:20:43;11.93;;;10.68;;
37781;SDS011;23621;50.878;4.584;2024-02-28T01:22:44;11.10;;;10.02;;
37781;SDS011;23621;50.878;4.584;2024-02-28T01:24:45;11.55;;;10.25;;
37781;SDS011;23621;50.878;4.584;2024-02-28T01:26:45;10.63;;;9.30;;
37781;SDS011;23621;50.878;4.584;2024-02-28T01:28:46;10.05;;;9.02;;
37781;SDS011;23621;50.878;4.584;2024-02-28T01:30:47;12.27;;;10.98;;
37781;SDS011;23621;50.878;4.584;2024-02-28T01:32:48;11.57;;;9.90;;
37781;SDS011;23621;50.878;4.584;2024-02-28T01:34:49;14.00;;;12.32;;
37781;SDS011;23621;50.878;4.584;2024-02-28T01:36:49;14.55;;;13.07;;
37781;SDS011;23621;50.878;4.584;2024-02-28T01:38:50;13.82;;;12.38;;
37781;SDS011;23621;50.878;4.584;2024-02-28T01:40:50;14.32;;;12.18;;
37781;SDS011;23621;50.878;4.584;2024-02-28T01:42:51;16.85;;;13.45;;
37781;SDS011;23621;50.878;4.584;2024-02-28T01:44:52;16.65;;;12.50;;
37781;SDS011;23621;50.878;4.584;2024-02-28T01:46:52;13.98;;;12.40;;
37781;SDS011;23621;50.878;4.584;2024-02-28T01:48:56;15.38;;;13.18;;
37781;SDS011;23621;50.878;4.584;2024-02-28T01:50:57;14.77;;;13.13;;
37781;SDS011;23621;50.878;4.584;2024-02-28T01:52:58;15.27;;;13.65;;
37781;SDS011;23621;50.878;4.584;2024-02-28T01:54:59;14.60;;;13.05;;
37781;SDS011;23621;50.878;4.584;2024-02-28T01:57:00;16.63;;;13.10;;
37781;SDS011;23621;50.878;4.584;2024-02-28T01:59:01;15.23;;;13.23;;
37781;SDS011;23621;50.878;4.584;2024-02-28T02:01:03;15.65;;;14.05;;
37781;SDS011;23621;50.878;4.584;2024-02-28T02:03:06;18.38;;;16.17;;
37781;SDS011;23621;50.878;4.584;2024-02-28T02:05:08;17.20;;;15.40;;
37781;SDS011;23621;50.878;4.584;2024-02-28T02:07:09;17.60;;;15.50;;
37781;SDS011;23621;50.878;4.584;2024-02-28T02:09:10;18.73;;;14.98;;
37781;SDS011;23621;50.878;4.584;2024-02-28T02:11:11;17.73;;;14.85;;
37781;SDS011;23621;50.878;4.584;2024-02-28T02:13:14;18.70;;;15.52;;
37781;SDS011;23621;50.878;4.584;2024-02-28T02:15:15;18.58;;;15.98;;
37781;SDS011;23621;50.878;4.584;2024-02-28T02:17:16;18.42;;;15.35;;
37781;SDS011;23621;50.878;4.584;2024-02-28T02:19:16;17.92;;;16.02;;
37781;SDS011;23621;50.878;4.584;2024-02-28T02:21:18;16.60;;;14.90;;
37781;SDS011;23621;50.878;4.584;2024-02-28T02:23:22;17.60;;;15.73;;
37781;SDS011;23621;50.878;4.584;2024-02-28T02:25:23;18.20;;;16.17;;
37781;SDS011;23621;50.878;4.584;2024-02-28T02:27:24;18.20;;;16.33;;
37781;SDS011;23621;50.878;4.584;2024-02-28T02:29:26;17.10;;;15.40;;
37781;SDS011;23621;50.878;4.584;2024-02-28T02:31:28;20.63;;;16.65;;
37781;SDS011;23621;50.878;4.584;2024-02-28T02:33:29;21.05;;;16.63;;
37781;SDS011;23621;50.878;4.584;2024-02-28T02:35:29;18.75;;;15.88;;
37781;SDS011;23621;50.878;4.584;2024-02-28T02:37:30;17.83;;;15.85;;
37781;SDS011;23621;50.878;4.584;2024-02-28T02:39:30;18.63;;;15.98;;
37781;SDS011;23621;50.878;4.584;2024-02-28T02:41:31;19.15;;;16.58;;
37781;SDS011;23621;50.878;4.584;2024-02-28T02:43:32;19.70;;;16.27;;
37781;SDS011;23621;50.878;4.584;2024-02-28T02:45:32;18.23;;;16.02;;
37781;SDS011;23621;50.878;4.584;2024-02-28T02:47:33;20.23;;;16.40;;
37781;SDS011;23621;50.878;4.584;2024-02-28T02:49:34;19.80;;;16.27;;
37781;SDS011;23621;50.878;4.584;2024-02-28T02:51:34;18.27;;;16.23;;
37781;SDS011;23621;50.878;4.584;2024-02-28T02:53:35;19.75;;;17.23;;
37781;SDS011;23621;50.878;4.584;2024-02-28T02:55:36;18.55;;;16.48;;
37781;SDS011;23621;50.878;4.584;2024-02-28T02:57:36;22.20;;;16.40;;
37781;SDS011;23621;50.878;4.584;2024-02-28T02:59:37;19.52;;;17.40;;
37781;SDS011;23621;50.878;4.584;2024-02-28T03:01:38;19.80;;;17.02;;
37781;SDS011;23621;50.878;4.584;2024-02-28T03:03:38;18.98;;;16.98;;
37781;SDS011;23621;50.878;4.584;2024-02-28T03:05:39;22.25;;;16.50;;
37781;SDS011;23621;50.878;4.584;2024-02-28T03:07:39;18.27;;;16.33;;
37781;SDS011;23621;50.878;4.584;2024-02-28T03:09:40;18.95;;;16.38;;
37781;SDS011;23621;50.878;4.584;2024-02-28T03:11:41;17.92;;;16.00;;
37781;SDS011;23621;50.878;4.584;2024-02-28T03:13:41;19.00;;;15.15;;
37781;SDS011;23621;50.878;4.584;2024-02-28T03:15:42;18.95;;;16.13;;
37781;SDS011;23621;50.878;4.584;2024-02-28T03:17:43;17.27;;;15.45;;
37781;SDS011;23621;50.878;4.584;2024-02-28T03:19:43;21.55;;;16.52;;
37781;SDS011;23621;50.878;4.584;2024-02-28T03:21:44;19.17;;;17.17;;
37781;SDS011;23621;50.878;4.584;2024-02-28T03:23:45;19.40;;;17.20;;
37781;SDS011;23621;50.878;4.584;2024-02-28T03:25:45;22.55;;;18.38;;
37781;SDS011;23621;50.878;4.584;2024-02-28T03:27:46;20.17;;;17.70;;
37781;SDS011;23621;50.878;4.584;2024-02-28T03:29:46;21.55;;;18.55;;
37781;SDS011;23621;50.878;4.584;2024-02-28T03:31:47;22.20;;;18.92;;
37781;SDS011;23621;50.878;4.584;2024-02-28T03:33:48;22.10;;;18.30;;
37781;SDS011;23621;50.878;4.584;2024-02-28T03:35:49;22.65;;;19.08;;
37781;SDS011;23621;50.878;4.584;2024-02-28T03:37:49;22.08;;;18.40;;
37781;SDS011;23621;50.878;4.584;2024-02-28T03:39:50;21.92;;;18.15;;
37781;SDS011;23621;50.878;4.584;2024-02-28T03:41:50;19.92;;;17.77;;
37781;SDS011;23621;50.878;4.584;2024-02-28T03:43:51;24.70;;;18.63;;
37781;SDS011;23621;50.878;4.584;2024-02-28T03:45:52;22.63;;;18.48;;
37781;SDS011;23621;50.878;4.584;2024-02-28T03:47:52;20.23;;;18.10;;
37781;SDS011;23621;50.878;4.584;2024-02-28T03:49:53;19.98;;;17.45;;
37781;SDS011;23621;50.878;4.584;2024-02-28T03:51:57;20.33;;;17.58;;
37781;SDS011;23621;50.878;4.584;2024-02-28T03:53:58;21.33;;;18.77;;
37781;SDS011;23621;50.878;4.584;2024-02-28T03:55:58;21.25;;;16.70;;
37781;SDS011;23621;50.878;4.584;2024-02-28T03:57:59;20.58;;;17.38;;
37781;SDS011;23621;50.878;4.584;2024-02-28T04:00:00;21.88;;;18.00;;
37781;SDS011;23621;50.878;4.584;2024-02-28T04:02:02;22.60;;;18.63;;
37781;SDS011;23621;50.878;4.584;2024-02-28T04:04:03;21.77;;;18.58;;
37781;SDS011;23621;50.878;4.584;2024-02-28T04:06:04;22.52;;;18.75;;
37781;SDS011;23621;50.878;4.584;2024-02-28T04:08:04;21.10;;;18.15;;
37781;SDS011;23621;50.878;4.584;2024-02-28T04:10:05;20.20;;;18.00;;
37781;SDS011;23621;50.878;4.584;2024-02-28T04:12:06;23.38;;;18.70;;
37781;SDS011;23621;50.878;4.584;2024-02-28T04:14:07;21.83;;;18.73;;
37781;SDS011;23621;50.878;4.584;2024-02-28T04:16:09;21.65;;;18.20;;
37781;SDS011;23621;50.878;4.584;2024-02-28T04:18:10;20.60;;;18.10;;
37781;SDS011;23621;50.878;4.584;2024-02-28T04:20:11;19.40;;;17.25;;
37781;SDS011;23621;50.878;4.584;2024-02-28T04:22:12;22.60;;;18.08;;
37781;SDS011;23621;50.878;4.584;2024-02-28T04:24:13;20.58;;;17.50;;
37781;SDS011;23621;50.878;4.584;2024-02-28T04:26:13;20.30;;;18.08;;
37781;SDS011;23621;50.878;4.584;2024-02-28T04:28:14;22.20;;;17.38;;
37781;SDS011;23621;50.878;4.584;2024-02-28T04:30:15;22.15;;;17.95;;
37781;SDS011;23621;50.878;4.584;2024-02-28T04:32:15;21.67;;;18.50;;
37781;SDS011;23621;50.878;4.584;2024-02-28T04:34:16;22.50;;;18.00;;
37781;SDS011;23621;50.878;4.584;2024-02-28T04:36:17;21.75;;;18.25;;
37781;SDS011;23621;50.878;4.584;2024-02-28T04:38:17;22.52;;;19.15;;
37781;SDS011;23621;50.878;4.584;2024-02-28T04:40:18;23.25;;;18.15;;
37781;SDS011;23621;50.878;4.584;2024-02-28T04:42:19;21.13;;;17.77;;
37781;SDS011;23621;50.878;4.584;2024-02-28T04:44:19;21.27;;;18.08;;
37781;SDS011;23621;50.878;4.584;2024-02-28T04:46:20;22.80;;;19.60;;
37781;SDS011;23621;50.878;4.584;2024-02-28T04:48:20;22.17;;;18.45;;
37781;SDS011;23621;50.878;4.584;2024-02-28T04:50:21;21.23;;;18.90;;
37781;SDS011;23621;50.878;4.584;2024-02-28T04:52:22;22.30;;;19.55;;
37781;SDS011;23621;50.878;4.584;2024-02-28T04:54:23;22.48;;;19.38;;
37781;SDS011;23621;50.878;4.584;2024-02-28T04:56:23;22.08;;;19.38;;
37781;SDS011;23621;50.878;4.584;2024-02-28T04:58:24;21.75;;;19.13;;
37781;SDS011;23621;50.878;4.584;2024-02-28T05:00:25;23.55;;;19.83;;
37781;SDS011;23621;50.878;4.584;2024-02-28T05:02:25;23.48;;;18.80;;
37781;SDS011;23621;50.878;4.584;2024-02-28T05:04:26;21.58;;;17.55;;
37781;SDS011;23621;50.878;4.584;2024-02-28T05:06:27;24.75;;;18.58;;
37781;SDS011;23621;50.878;4.584;2024-02-28T05:08:28;22.05;;;19.15;;
37781;SDS011;23621;50.878;4.584;2024-02-28T05:10:28;21.42;;;18.75;;
37781;SDS011;23621;50.878;4.584;2024-02-28T05:12:29;21.48;;;17.60;;
37781;SDS011;23621;50.878;4.584;2024-02-28T05:14:30;20.23;;;18.08;;
37781;SDS011;23621;50.878;4.584;2024-02-28T05:16:30;20.88;;;18.33;;
37781;SDS011;23621;50.878;4.584;2024-02-28T05:18:32;21.95;;;18.30;;
37781;SDS011;23621;50.878;4.584;2024-02-28T05:20:33;21.23;;;17.80;;
37781;SDS011;23621;50.878;4.584;2024-02-28T05:22:33;19.45;;;17.40;;
37781;SDS011;23621;50.878;4.584;2024-02-28T05:24:34;22.65;;;16.85;;
37781;SDS011;23621;50.878;4.584;2024-02-28T05:26:35;20.98;;;16.63;;
37781;SDS011;23621;50.878;4.584;2024-02-28T05:28:36;18.48;;;16.48;;
37781;SDS011;23621;50.878;4.584;2024-02-28T05:30:38;20.08;;;17.05;;
37781;SDS011;23621;50.878;4.584;2024-02-28T05:32:39;19.38;;;16.55;;
37781;SDS011;23621;50.878;4.584;2024-02-28T05:34:40;22.15;;;16.48;;
37781;SDS011;23621;50.878;4.584;2024-02-28T05:36:41;18.58;;;14.50;;
37781;SDS011;23621;50.878;4.584;2024-02-28T05:38:42;17.73;;;15.82;;
37781;SDS011;23621;50.878;4.584;2024-02-28T05:40:43;18.38;;;15.63;;
37781;SDS011;23621;50.878;4.584;2024-02-28T05:42:43;19.33;;;15.05;;
37781;SDS011;23621;50.878;4.584;2024-02-28T05:44:44;19.60;;;15.18;;
37781;SDS011;23621;50.878;4.584;2024-02-28T05:46:44;20.25;;;15.57;;
37781;SDS011;23621;50.878;4.584;2024-02-28T05:48:45;20.42;;;16.17;;
37781;SDS011;23621;50.878;4.584;2024-02-28T05:50:46;20.42;;;16.63;;
37781;SDS011;23621;50.878;4.584;2024-02-28T05:52:47;20.55;;;15.52;;
37781;SDS011;23621;50.878;4.584;2024-02-28T05:54:47;20.85;;;15.68;;
37781;SDS011;23621;50.878;4.584;2024-02-28T05:56:48;18.58;;;16.13;;
37781;SDS011;23621;50.878;4.584;2024-02-28T05:58:49;19.52;;;15.18;;
37781;SDS011;23621;50.878;4.584;2024-02-28T06:00:49;19.92;;;15.85;;
37781;SDS011;23621;50.878;4.584;2024-02-28T06:02:51;19.13;;;15.18;;
37781;SDS011;23621;50.878;4.584;2024-02-28T06:04:51;20.90;;;16.38;;
37781;SDS011;23621;50.878;4.584;2024-02-28T06:06:52;25.70;;;17.45;;
37781;SDS011;23621;50.878;4.584;2024-02-28T06:08:53;20.13;;;16.80;;
37781;SDS011;23621;50.878;4.584;2024-02-28T06:10:54;23.35;;;17.05;;
37781;SDS011;23621;50.878;4.584;2024-02-28T06:12:54;20.88;;;17.80;;
37781;SDS011;23621;50.878;4.584;2024-02-28T06:14:55;22.27;;;17.65;;
37781;SDS011;23621;50.878;4.584;2024-02-28T06:16:56;21.52;;;17.63;;
37781;SDS011;23621;50.878;4.584;2024-02-28T06:18:56;25.25;;;18.05;;
37781;SDS011;23621;50.878;4.584;2024-02-28T06:20:57;20.90;;;17.02;;
37781;SDS011;23621;50.878;4.584;2024-02-28T06:22:58;23.20;;;18.27;;
37781;SDS011;23621;50.878;4.584;2024-02-28T06:24:58;22.17;;;17.75;;
37781;SDS011;23621;50.878;4.584;2024-02-28T06:26:59;21.00;;;16.92;;
37781;SDS011;23621;50.878;4.584;2024-02-28T06:28:59;24.73;;;17.88;;
37781;SDS011;23621;50.878;4.584;2024-02-28T06:31:04;22.27;;;17.80;;
37781;SDS011;23621;50.878;4.584;2024-02-28T06:33:04;22.42;;;17.15;;
37781;SDS011;23621;50.878;4.584;2024-02-28T06:35:06;21.17;;;18.08;;
37781;SDS011;23621;50.878;4.584;2024-02-28T06:37:07;22.35;;;17.25;;
37781;SDS011;23621;50.878;4.584;2024-02-28T06:39:08;20.17;;;17.55;;
37781;SDS011;23621;50.878;4.584;2024-02-28T06:41:08;22.42;;;18.30;;
37781;SDS011;23621;50.878;4.584;2024-02-28T06:43:09;24.35;;;18.33;;
37781;SDS011;23621;50.878;4.584;2024-02-28T06:45:10;20.80;;;17.52;;
37781;SDS011;23621;50.878;4.584;2024-02-28T06:47:10;24.23;;;18.90;;
37781;SDS011;23621;50.878;4.584;2024-02-28T06:49:11;21.77;;;18.17;;
37781;SDS011;23621;50.878;4.584;2024-02-28T06:51:12;24.67;;;19.90;;
37781;SDS011;23621;50.878;4.584;2024-02-28T06:53:12;23.63;;;19.52;;
37781;SDS011;23621;50.878;4.584;2024-02-28T06:55:13;22.05;;;18.48;;
37781;SDS011;23621;50.878;4.584;2024-02-28T06:57:14;27.63;;;19.23;;
37781;SDS011;23621;50.878;4.584;2024-02-28T06:59:14;23.77;;;19.08;;
37781;SDS011;23621;50.878;4.584;2024-02-28T07:01:15;25.05;;;19.77;;
37781;SDS011;23621;50.878;4.584;2024-02-28T07:03:17;23.92;;;18.65;;
37781;SDS011;23621;50.878;4.584;2024-02-28T07:05:17;28.83;;;20.05;;
37781;SDS011;23621;50.878;4.584;2024-02-28T07:07:18;24.60;;;19.95;;
37781;SDS011;23621;50.878;4.584;2024-02-28T07:09:19;27.02;;;19.75;;
37781;SDS011;23621;50.878;4.584;2024-02-28T07:11:20;30.40;;;21.40;;
37781;SDS011;23621;50.878;4.584;2024-02-28T07:13:21;30.38;;;22.25;;
37781;SDS011;23621;50.878;4.584;2024-02-28T07:15:22;29.15;;;21.20;;
37781;SDS011;23621;50.878;4.584;2024-02-28T07:17:22;26.27;;;21.50;;
37781;SDS011;23621;50.878;4.584;2024-02-28T07:19:23;33.92;;;22.52;;
37781;SDS011;23621;50.878;4.584;2024-02-28T07:21:24;28.95;;;22.27;;
37781;SDS011;23621;50.878;4.584;2024-02-28T07:23:25;29.20;;;22.13;;
37781;SDS011;23621;50.878;4.584;2024-02-28T07:25:26;34.50;;;22.70;;
37781;SDS011;23621;50.878;4.584;2024-02-28T07:27:26;30.20;;;22.40;;
37781;SDS011;23621;50.878;4.584;2024-02-28T07:29:27;29.27;;;21.98;;
37781;SDS011;23621;50.878;4.584;2024-02-28T07:31:28;32.85;;;23.92;;
37781;SDS011;23621;50.878;4.584;2024-02-28T07:33:28;30.42;;;23.05;;
37781;SDS011;23621;50.878;4.584;2024-02-28T07:35:29;31.30;;;22.67;;
37781;SDS011;23621;50.878;4.584;2024-02-28T07:37:30;31.42;;;23.40;;
37781;SDS011;23621;50.878;4.584;2024-02-28T07:39:30;30.05;;;23.23;;
37781;SDS011;23621;50.878;4.584;2024-02-28T07:41:31;32.72;;;23.50;;
37781;SDS011;23621;50.878;4.584;2024-02-28T07:43:32;30.67;;;22.92;;
37781;SDS011;23621;50.878;4.584;2024-02-28T07:45:37;39.90;;;26.00;;
37781;SDS011;23621;50.878;4.584;2024-02-28T07:47:37;38.33;;;26.92;;
37781;SDS011;23621;50.878;4.584;2024-02-28T07:49:38;41.15;;;27.42;;
37781;SDS011;23621;50.878;4.584;2024-02-28T07:51:39;37.97;;;26.25;;
37781;SDS011;23621;50.878;4.584;2024-02-28T07:53:40;43.13;;;26.80;;
37781;SDS011;23621;50.878;4.584;2024-02-28T07:55:41;38.53;;;26.20;;
37781;SDS011;23621;50.878;4.584;2024-02-28T07:57:41;36.75;;;25.08;;
37781;SDS011;23621;50.878;4.584;2024-02-28T07:59:42;34.67;;;25.58;;
37781;SDS011;23621;50.878;4.584;2024-02-28T08:01:43;39.42;;;26.42;;
37781;SDS011;23621;50.878;4.584;2024-02-28T08:03:43;40.78;;;24.83;;
37781;SDS011;23621;50.878;4.584;2024-02-28T08:05:44;37.30;;;25.67;;
37781;SDS011;23621;50.878;4.584;2024-02-28T08:07:46;35.25;;;23.92;;
37781;SDS011;23621;50.878;4.584;2024-02-28T08:09:46;39.75;;;25.58;;
37781;SDS011;23621;50.878;4.584;2024-02-28T08:11:47;35.38;;;24.40;;
37781;SDS011;23621;50.878;4.584;2024-02-28T08:13:48;41.45;;;25.42;;
37781;SDS011;23621;50.878;4.584;2024-02-28T08:15:48;38.65;;;25.58;;
37781;SDS011;23621;50.878;4.584;2024-02-28T08:17:49;39.25;;;25.02;;
37781;SDS011;23621;50.878;4.584;2024-02-28T08:19:50;36.80;;;23.92;;
37781;SDS011;23621;50.878;4.584;2024-02-28T08:21:50;47.60;;;26.05;;
37781;SDS011;23621;50.878;4.584;2024-02-28T08:23:51;41.60;;;26.33;;
37781;SDS011;23621;50.878;4.584;2024-02-28T08:25:51;43.72;;;25.85;;
37781;SDS011;23621;50.878;4.584;2024-02-28T08:27:53;44.60;;;25.70;;
37781;SDS011;23621;50.878;4.584;2024-02-28T08:29:53;39.58;;;24.42;;
37781;SDS011;23621;50.878;4.584;2024-02-28T08:31:54;42.72;;;25.98;;
37781;SDS011;23621;50.878;4.584;2024-02-28T08:33:54;46.83;;;25.70;;
37781;SDS011;23621;50.878;4.584;2024-02-28T08:35:55;46.92;;;24.95;;
37781;SDS011;23621;50.878;4.584;2024-02-28T08:37:57;41.38;;;25.63;;
37781;SDS011;23621;50.878;4.584;2024-02-28T08:39:57;42.60;;;26.52;;
37781;SDS011;23621;50.878;4.584;2024-02-28T08:41:58;40.03;;;25.55;;
37781;SDS011;23621;50.878;4.584;2024-02-28T08:43:59;44.15;;;25.85;;
37781;SDS011;23621;50.878;4.584;2024-02-28T08:45:59;38.22;;;26.58;;
37781;SDS011;23621;50.878;4.584;2024-02-28T08:48:00;43.10;;;26.05;;
37781;SDS011;23621;50.878;4.584;2024-02-28T08:50:04;43.13;;;24.13;;
37781;SDS011;23621;50.878;4.584;2024-02-28T08:52:05;38.78;;;24.42;;
37781;SDS011;23621;50.878;4.584;2024-02-28T08:54:06;36.85;;;24.17;;
37781;SDS011;23621;50.878;4.584;2024-02-28T08:56:06;39.40;;;24.70;;
37781;SDS011;23621;50.878;4.584;2024-02-28T08:58:07;37.42;;;24.58;;
37781;SDS011;23621;50.878;4.584;2024-02-28T09:00:08;39.20;;;24.15;;
37781;SDS011;23621;50.878;4.584;2024-02-28T09:02:09;34.47;;;22.27;;
37781;SDS011;23621;50.878;4.584;2024-02-28T09:04:11;35.58;;;21.90;;
37781;SDS011;23621;50.878;4.584;2024-02-28T09:06:11;33.15;;;22.55;;
37781;SDS011;23621;50.878;4.584;2024-02-28T09:08:12;36.78;;;22.35;;
37781;SDS011;23621;50.878;4.584;2024-02-28T09:10:13;29.52;;;20.80;;
37781;SDS011;23621;50.878;4.584;2024-02-28T09:12:13;29.05;;;19.58;;
37781;SDS011;23621;50.878;4.584;2024-02-28T09:14:14;33.83;;;20.08;;
37781;SDS011;23621;50.878;4.584;2024-02-28T09:16:15;29.10;;;19.30;;
37781;SDS011;23621;50.878;4.584;2024-02-28T09:18:16;33.95;;;20.23;;
37781;SDS011;23621;50.878;4.584;2024-02-28T09:20:17;29.00;;;18.45;;
37781;SDS011;23621;50.878;4.584;2024-02-28T09:22:17;31.40;;;19.63;;
37781;SDS011;23621;50.878;4.584;2024-02-28T09:24:18;31.85;;;19.05;;
37781;SDS011;23621;50.878;4.584;2024-02-28T09:26:18;29.10;;;18.58;;
37781;SDS011;23621;50.878;4.584;2024-02-28T09:28:19;33.63;;;19.23;;
37781;SDS011;23621;50.878;4.584;2024-02-28T09:30:20;34.72;;;19.58;;
37781;SDS011;23621;50.878;4.584;2024-02-28T09:32:21;30.25;;;19.40;;
37781;SDS011;23621;50.878;4.584;2024-02-28T09:34:21;31.77;;;19.40;;
37781;SDS011;23621;50.878;4.584;2024-02-28T09:36:22;34.83;;;19.98;;
37781;SDS011;23621;50.878;4.584;2024-02-28T09:38:23;37.67;;;21.38;;
37781;SDS011;23621;50.878;4.584;2024-02-28T09:40:23;34.08;;;20.00;;
37781;SDS011;23621;50.878;4.584;2024-02-28T09:42:24;31.25;;;20.73;;
37781;SDS011;23621;50.878;4.584;2024-02-28T09:44:25;33.38;;;20.55;;
37781;SDS011;23621;50.878;4.584;2024-02-28T09:46:26;35.42;;;21.35;;
37781;SDS011;23621;50.878;4.584;2024-02-28T09:48:27;33.75;;;21.05;;
37781;SDS011;23621;50.878;4.584;2024-02-28T09:50:29;35.60;;;21.25;;
37781;SDS011;23621;50.878;4.584;2024-02-28T09:52:30;37.45;;;22.05;;
37781;SDS011;23621;50.878;4.584;2024-02-28T09:54:31;35.30;;;21.40;;
37781;SDS011;23621;50.878;4.584;2024-02-28T09:56:31;35.60;;;22.00;;
37781;SDS011;23621;50.878;4.584;2024-02-28T09:58:33;38.38;;;22.63;;
37781;SDS011;23621;50.878;4.584;2024-02-28T10:00:35;33.42;;;21.38;;
37781;SDS011;23621;50.878;4.584;2024-02-28T10:02:37;39.58;;;22.73;;
37781;SDS011;23621;50.878;4.584;2024-02-28T10:04:41;35.00;;;21.15;;
37781;SDS011;23621;50.878;4.584;2024-02-28T10:06:42;39.85;;;21.52;;
37781;SDS011;23621;50.878;4.584;2024-02-28T10:08:42;35.47;;;22.58;;
37781;SDS011;23621;50.878;4.584;2024-02-28T10:10:47;33.50;;;21.85;;
37781;SDS011;23621;50.878;4.584;2024-02-28T10:12:48;35.85;;;22.20;;
37781;SDS011;23621;50.878;4.584;2024-02-28T10:14:49;32.33;;;20.50;;
37781;SDS011;23621;50.878;4.584;2024-02-28T10:16:51;37.70;;;21.25;;
37781;SDS011;23621;50.878;4.584;2024-02-28T10:18:52;37.08;;;21.58;;
37781;SDS011;23621;50.878;4.584;2024-02-28T10:20:53;34.25;;;20.60;;
37781;SDS011;23621;50.878;4.584;2024-02-28T10:22:54;33.10;;;21.45;;
37781;SDS011;23621;50.878;4.584;2024-02-28T10:24:58;32.45;;;20.77;;
37781;SDS011;23621;50.878;4.584;2024-02-28T10:27:01;31.55;;;20.30;;
37781;SDS011;23621;50.878;4.584;2024-02-28T10:29:03;29.80;;;20.30;;
37781;SDS011;23621;50.878;4.584;2024-02-28T10:31:04;32.00;;;20.30;;
37781;SDS011;23621;50.878;4.584;2024-02-28T10:33:09;30.92;;;19.15;;
37781;SDS011;23621;50.878;4.584;2024-02-28T10:35:19;30.17;;;18.58;;
37781;SDS011;23621;50.878;4.584;2024-02-28T10:37:20;25.80;;;18.73;;
37781;SDS011;23621;50.878;4.584;2024-02-28T10:39:22;30.52;;;18.80;;
37781;SDS011;23621;50.878;4.584;2024-02-28T10:41:25;26.45;;;17.52;;
37781;SDS011;23621;50.878;4.584;2024-02-28T10:43:28;31.73;;;19.00;;
37781;SDS011;23621;50.878;4.584;2024-02-28T10:45:30;25.23;;;16.63;;
37781;SDS011;23621;50.878;4.584;2024-02-28T10:47:31;23.38;;;16.98;;
37781;SDS011;23621;50.878;4.584;2024-02-28T10:49:32;33.22;;;17.35;;
37781;SDS011;23621;50.878;4.584;2024-02-28T10:51:34;25.48;;;16.33;;
37781;SDS011;23621;50.878;4.584;2024-02-28T10:53:37;22.50;;;15.95;;
37781;SDS011;23621;50.878;4.584;2024-02-28T10:55:41;28.27;;;16.35;;
37781;SDS011;23621;50.878;4.584;2024-02-28T10:57:43;22.42;;;16.23;;
37781;SDS011;23621;50.878;4.584;2024-02-28T10:59:50;30.63;;;16.58;;
37781;SDS011;23621;50.878;4.584;2024-02-28T11:01:51;22.70;;;15.65;;
37781;SDS011;23621;50.878;4.584;2024-02-28T11:03:52;24.70;;;15.00;;
37781;SDS011;23621;50.878;4.584;2024-02-28T11:05:54;21.52;;;15.65;;
37781;SDS011;23621;50.878;4.584;2024-02-28T11:07:54;20.95;;;14.93;;
37781;SDS011;23621;50.878;4.584;2024-02-28T11:09:55;20.50;;;14.88;;
37781;SDS011;23621;50.878;4.584;2024-02-28T11:11:56;24.17;;;15.13;;
37781;SDS011;23621;50.878;4.584;2024-02-28T11:13:57;22.33;;;15.10;;
37781;SDS011;23621;50.878;4.584;2024-02-28T11:16:07;23.30;;;15.10;;
37781;SDS011;23621;50.878;4.584;2024-02-28T11:18:09;28.63;;;14.75;;
37781;SDS011;23621;50.878;4.584;2024-02-28T11:20:13;22.33;;;14.23;;
37781;SDS011;23621;50.878;4.584;2024-02-28T11:22:14;21.23;;;14.05;;
37781;SDS011;23621;50.878;4.584;2024-02-28T11:24:18;21.23;;;14.80;;
37781;SDS011;23621;50.878;4.584;2024-02-28T11:26:22;23.08;;;15.68;;
37781;SDS011;23621;50.878;4.584;2024-02-28T11:28:22;19.90;;;14.50;;
37781;SDS011;23621;50.878;4.584;2024-02-28T11:30:24;19.50;;;14.50;;
37781;SDS011;23621;50.878;4.584;2024-02-28T11:32:25;23.33;;;15.05;;
37781;SDS011;23621;50.878;4.584;2024-02-28T11:34:26;19.98;;;14.57;;
37781;SDS011;23621;50.878;4.584;2024-02-28T11:36:26;23.33;;;15.38;;
37781;SDS011;23621;50.878;4.584;2024-02-28T11:38:27;24.10;;;15.30;;
37781;SDS011;23621;50.878;4.584;2024-02-28T11:40:28;20.90;;;15.73;;
37781;SDS011;23621;50.878;4.584;2024-02-28T11:42:29;21.52;;;15.88;;
37781;SDS011;23621;50.878;4.584;2024-02-28T11:44:30;22.00;;;14.43;;
37781;SDS011;23621;50.878;4.584;2024-02-28T11:46:32;20.67;;;14.02;;
37781;SDS011;23621;50.878;4.584;2024-02-28T11:48:33;20.50;;;15.05;;
37781;SDS011;23621;50.878;4.584;2024-02-28T11:50:33;19.10;;;13.43;;
37781;SDS011;23621;50.878;4.584;2024-02-28T11:52:34;20.23;;;13.60;;
37781;SDS011;23621;50.878;4.584;2024-02-28T11:54:35;22.60;;;14.18;;
37781;SDS011;23621;50.878;4.584;2024-02-28T11:56:35;19.70;;;14.07;;
37781;SDS011;23621;50.878;4.584;2024-02-28T11:58:37;21.65;;;14.23;;
37781;SDS011;23621;50.878;4.584;2024-02-28T12:00:47;20.17;;;14.85;;
37781;SDS011;23621;50.878;4.584;2024-02-28T12:02:51;21.42;;;15.32;;
37781;SDS011;23621;50.878;4.584;2024-02-28T12:04:53;17.90;;;12.57;;
37781;SDS011;23621;50.878;4.584;2024-02-28T12:06:55;18.88;;;12.82;;
37781;SDS011;23621;50.878;4.584;2024-02-28T12:08:57;16.75;;;12.23;;
37781;SDS011;23621;50.878;4.584;2024-02-28T12:11:05;17.80;;;11.65;;
37781;SDS011;23621;50.878;4.584;2024-02-28T12:13:07;14.43;;;11.50;;
37781;SDS011;23621;50.878;4.584;2024-02-28T12:15:09;15.13;;;10.90;;